createdAt,value
2018-06-29T00:00:12.977Z,24.60
2018-06-29T00:02:42.106Z,24.70
2018-06-29T00:05:11.282Z,25.70
2018-06-29T00:07:40.411Z,24.70
2018-06-29T00:10:09.621Z,24.60
2018-06-29T00:12:38.735Z,24.70
2018-06-29T00:15:07.875Z,25.10
2018-06-29T00:17:37.038Z,25.20
2018-06-29T00:20:06.262Z,25.30
2018-06-29T00:22:35.418Z,25.50
2018-06-29T00:25:04.617Z,25.70
2018-06-29T00:27:33.741Z,25.70
2018-06-29T00:30:02.926Z,26.00
2018-06-29T00:32:32.030Z,26.20
2018-06-29T00:35:01.159Z,26.20
2018-06-29T00:37:30.348Z,26.60
2018-06-29T00:39:59.567Z,26.70
2018-06-29T00:42:28.691Z,26.70
2018-06-29T00:44:57.973Z,26.80
2018-06-29T00:47:27.179Z,27.10
2018-06-29T00:49:56.267Z,27.20
2018-06-29T00:52:25.417Z,27.40
2018-06-29T00:54:54.586Z,27.60
2018-06-29T00:57:23.781Z,27.70
2018-06-29T00:59:52.975Z,27.70
2018-06-29T01:02:22.106Z,28.10
2018-06-29T01:04:51.366Z,28.40
2018-06-29T01:07:20.506Z,28.20
2018-06-29T01:09:49.725Z,28.60
2018-06-29T01:12:18.862Z,28.80
2018-06-29T01:14:47.997Z,29.00
2018-06-29T01:17:17.145Z,29.00
2018-06-29T01:19:46.341Z,29.10
2018-06-29T01:22:15.508Z,29.40
2018-06-29T01:24:44.675Z,29.40
2018-06-29T01:27:13.857Z,29.50
2018-06-29T01:29:43.039Z,29.50
2018-06-29T01:32:12.236Z,29.60
2018-06-29T01:34:41.399Z,29.80
2018-06-29T01:37:10.528Z,29.60
2018-06-29T01:39:39.706Z,29.70
2018-06-29T01:42:08.830Z,29.70
2018-06-29T01:44:38.065Z,29.80
2018-06-29T01:47:07.568Z,29.90
2018-06-29T01:49:36.706Z,30.00
2018-06-29T01:52:06.126Z,30.40
2018-06-29T01:54:35.285Z,30.50
2018-06-29T01:57:04.434Z,30.60
2018-06-29T01:59:33.581Z,32.00
2018-06-29T02:02:02.724Z,31.00
2018-06-29T02:04:31.927Z,31.10
2018-06-29T02:07:01.250Z,31.20
2018-06-29T02:09:30.602Z,31.40
2018-06-29T02:11:59.788Z,31.60
2018-06-29T02:14:28.963Z,31.80
2018-06-29T02:16:58.081Z,31.90
2018-06-29T02:19:27.299Z,32.10
2018-06-29T02:21:56.397Z,32.20
2018-06-29T02:24:25.594Z,32.10
2018-06-29T02:26:54.819Z,32.30
2018-06-29T02:29:23.978Z,32.60
2018-06-29T02:31:53.188Z,32.90
2018-06-29T02:34:22.349Z,33.10
2018-06-29T02:36:51.579Z,33.30
2018-06-29T02:39:20.771Z,33.70
2018-06-29T02:41:50.034Z,33.50
2018-06-29T02:44:19.199Z,34.60
2018-06-29T02:46:48.293Z,33.60
2018-06-29T02:49:17.432Z,33.50
2018-06-29T02:51:46.612Z,33.20
2018-06-29T02:54:15.759Z,33.00
2018-06-29T02:56:44.853Z,33.00
2018-06-29T02:59:13.985Z,32.60
2018-06-29T03:01:43.173Z,32.30
2018-06-29T03:04:12.340Z,32.50
2018-06-29T03:06:41.652Z,32.70
2018-06-29T03:09:11.062Z,32.40
2018-06-29T03:11:40.292Z,32.20
2018-06-29T03:14:09.481Z,32.10
2018-06-29T03:16:38.685Z,31.80
2018-06-29T03:19:07.882Z,32.00
2018-06-29T03:21:37.037Z,31.90
2018-06-29T03:24:06.155Z,31.60
2018-06-29T03:26:35.585Z,31.50
2018-06-29T03:29:04.802Z,31.10
2018-06-29T03:31:33.950Z,30.90
2018-06-29T03:34:03.068Z,30.80
2018-06-29T03:36:32.249Z,30.60
2018-06-29T03:39:01.388Z,30.50
2018-06-29T03:41:30.533Z,30.20
2018-06-29T03:43:59.748Z,30.10
2018-06-29T03:46:28.943Z,30.10
2018-06-29T03:48:58.100Z,29.60
2018-06-29T03:51:27.216Z,28.60
2018-06-29T03:53:56.335Z,29.20
2018-06-29T03:56:25.527Z,29.00
2018-06-29T03:58:55.001Z,28.30
2018-06-29T04:01:24.150Z,28.10
2018-06-29T04:03:53.298Z,27.40
2018-06-29T04:06:22.472Z,27.40
2018-06-29T04:08:51.583Z,27.00
2018-06-29T04:11:20.710Z,26.70
2018-06-29T04:13:49.821Z,26.20
2018-06-29T04:16:18.988Z,25.00
2018-06-29T04:18:48.157Z,25.90
2018-06-29T04:21:17.258Z,25.40
2018-06-29T04:23:46.360Z,24.90
2018-06-29T04:26:15.459Z,24.60
2018-06-29T04:28:44.597Z,25.00
2018-06-29T04:31:13.714Z,24.10
2018-06-29T04:33:42.863Z,23.40
2018-06-29T04:36:12.022Z,23.50
2018-06-29T04:38:41.189Z,23.50
2018-06-29T04:41:10.333Z,23.70
2018-06-29T04:43:39.531Z,23.70
2018-06-29T04:46:08.696Z,23.70
2018-06-29T04:48:37.881Z,23.70
2018-06-29T04:51:07.082Z,23.30
2018-06-29T04:53:36.278Z,22.90
2018-06-29T04:56:05.406Z,22.60
2018-06-29T04:58:34.497Z,22.10
2018-06-29T05:01:03.817Z,21.70
2018-06-29T05:03:32.928Z,21.40
2018-06-29T05:06:02.094Z,21.40
2018-06-29T05:08:31.255Z,21.30
2018-06-29T05:11:00.424Z,21.10
2018-06-29T05:13:29.512Z,21.10
2018-06-29T05:15:58.664Z,21.30
2018-06-29T05:18:27.845Z,21.10
2018-06-29T05:20:56.972Z,20.80
2018-06-29T05:23:26.081Z,21.00
2018-06-29T05:25:55.227Z,20.90
2018-06-29T05:28:24.435Z,20.70
2018-06-29T05:30:53.545Z,20.30
2018-06-29T05:33:22.730Z,20.20
2018-06-29T05:35:51.918Z,20.00
2018-06-29T05:38:21.194Z,19.90
2018-06-29T05:40:51.295Z,19.90
2018-06-29T05:43:20.470Z,19.80
2018-06-29T05:45:49.609Z,19.40
2018-06-29T05:48:18.858Z,19.20
2018-06-29T05:50:47.938Z,19.10
2018-06-29T05:53:17.093Z,19.00
2018-06-29T05:55:46.144Z,18.80
2018-06-29T05:58:15.325Z,18.70
2018-06-29T06:00:44.473Z,18.40
2018-06-29T06:03:13.641Z,18.20
2018-06-29T06:05:42.711Z,18.20
2018-06-29T06:08:11.853Z,18.00
2018-06-29T06:10:41.022Z,17.90
2018-06-29T06:13:10.153Z,17.60
2018-06-29T06:15:39.331Z,17.50
2018-06-29T06:18:08.556Z,17.40
2018-06-29T06:20:37.688Z,17.20
2018-06-29T06:23:20.715Z,17.00
2018-06-29T06:25:49.874Z,16.60
2018-06-29T06:28:19.302Z,16.10
2018-06-29T06:30:48.468Z,16.20
2018-06-29T06:33:17.667Z,16.30
2018-06-29T06:35:46.817Z,16.30
2018-06-29T06:38:15.937Z,16.40
2018-06-29T06:40:45.130Z,16.40
2018-06-29T06:43:14.223Z,16.50
2018-06-29T06:45:43.358Z,16.00
2018-06-29T06:48:12.538Z,16.10
2018-06-29T06:50:41.666Z,16.00
2018-06-29T06:53:10.836Z,15.60
2018-06-29T06:55:40.047Z,15.50
2018-06-29T06:58:09.213Z,15.40
2018-06-29T07:00:38.373Z,15.20
2018-06-29T07:03:07.559Z,16.30
2018-06-29T07:05:36.666Z,14.90
2018-06-29T07:08:06.073Z,14.30
2018-06-29T07:10:35.196Z,14.50
2018-06-29T07:13:04.393Z,14.70
2018-06-29T07:15:33.588Z,14.20
2018-06-29T07:18:02.744Z,14.40
2018-06-29T07:20:31.921Z,14.20
2018-06-29T07:23:01.091Z,14.10
2018-06-29T07:25:30.216Z,14.00
2018-06-29T07:27:59.312Z,13.20
2018-06-29T07:30:28.451Z,13.60
2018-06-29T07:32:57.611Z,13.20
2018-06-29T07:35:26.754Z,13.10
2018-06-29T07:37:55.962Z,12.60
2018-06-29T07:40:25.117Z,12.80
2018-06-29T07:42:54.274Z,12.70
2018-06-29T07:45:23.457Z,12.30
2018-06-29T07:47:52.665Z,11.90
2018-06-29T07:50:21.862Z,12.30
2018-06-29T07:52:51.085Z,12.30
2018-06-29T07:55:20.242Z,12.30
2018-06-29T07:57:49.362Z,12.50
2018-06-29T08:00:18.528Z,11.90
2018-06-29T08:02:47.754Z,11.90
2018-06-29T08:05:16.922Z,11.70
2018-06-29T08:07:46.045Z,11.10
2018-06-29T08:10:15.247Z,10.90
2018-06-29T08:12:44.435Z,11.00
2018-06-29T08:15:13.775Z,11.20
2018-06-29T08:17:42.925Z,10.70
2018-06-29T08:20:12.174Z,10.60
2018-06-29T08:22:41.371Z,10.10
2018-06-29T08:25:14.587Z,10.60
2018-06-29T08:27:44.036Z,10.30
2018-06-29T08:30:14.326Z,10.00
2018-06-29T08:32:43.477Z,10.20
2018-06-29T08:35:12.613Z,8.80
2018-06-29T08:37:41.802Z,9.50
2018-06-29T08:40:11.153Z,8.80
2018-06-29T08:42:40.317Z,8.70
2018-06-29T08:45:10.102Z,8.70
2018-06-29T08:47:39.254Z,8.70
2018-06-29T08:50:08.366Z,8.80
2018-06-29T08:52:37.518Z,8.90
2018-06-29T08:55:06.823Z,8.10
2018-06-29T08:57:36.100Z,8.70
2018-06-29T09:00:07.220Z,8.70
2018-06-29T09:02:36.476Z,8.80
2018-06-29T09:05:06.226Z,8.80
2018-06-29T09:07:35.656Z,8.10
2018-06-29T09:10:05.414Z,8.10
2018-06-29T09:12:34.602Z,7.50
2018-06-29T09:15:03.778Z,6.90
2018-06-29T09:17:32.921Z,7.50
2018-06-29T09:20:02.119Z,6.60
2018-06-29T09:22:31.318Z,7.70
2018-06-29T09:25:00.448Z,7.20
2018-06-29T09:27:29.642Z,7.90
2018-06-29T09:29:58.882Z,6.80
2018-06-29T09:32:28.054Z,6.50
2018-06-29T09:34:57.165Z,5.60
2018-06-29T09:37:26.394Z,5.50
2018-06-29T09:39:55.557Z,5.80
2018-06-29T09:42:24.716Z,5.60
2018-06-29T09:44:53.850Z,4.50
2018-06-29T09:47:23.003Z,4.00
2018-06-29T09:49:52.141Z,4.30
2018-06-29T09:52:21.269Z,3.90
2018-06-29T09:54:50.435Z,3.40
2018-06-29T09:57:19.654Z,3.10
2018-06-29T09:59:48.883Z,2.70
2018-06-29T10:02:18.017Z,1.90
2018-06-29T10:04:47.134Z,2.10
2018-06-29T10:07:16.275Z,1.70
2018-06-29T10:09:45.395Z,2.00
2018-06-29T10:12:14.501Z,2.10
2018-06-29T10:14:43.639Z,1.70
2018-06-29T10:17:12.772Z,2.20
2018-06-29T10:19:41.997Z,1.50
2018-06-29T10:22:11.150Z,2.00
2018-06-29T10:24:40.301Z,2.60
2018-06-29T10:27:09.416Z,2.20
2018-06-29T10:29:38.581Z,1.40
2018-06-29T10:32:07.716Z,1.80
2018-06-29T10:34:36.889Z,1.30
2018-06-29T10:37:06.009Z,1.60
2018-06-29T10:39:35.490Z,1.10
2018-06-29T10:42:04.654Z,1.00
2018-06-29T10:44:33.913Z,1.00
2018-06-29T10:47:03.146Z,1.00
2018-06-29T10:49:32.355Z,1.00
2018-06-29T10:52:01.496Z,1.00
2018-06-29T10:54:30.673Z,1.00
2018-06-29T10:56:59.821Z,1.00
2018-06-29T10:59:28.951Z,1.00
2018-06-29T11:01:58.126Z,1.00
2018-06-29T11:04:27.325Z,1.00
2018-06-29T11:06:56.420Z,1.00
2018-06-29T11:09:25.570Z,1.00
2018-06-29T11:11:54.759Z,1.00
2018-06-29T11:14:23.906Z,1.00
2018-06-29T11:16:53.102Z,1.00
2018-06-29T11:19:22.309Z,1.00
2018-06-29T11:21:51.641Z,1.00
2018-06-29T11:24:20.835Z,1.00
2018-06-29T11:26:50.024Z,1.00
2018-06-29T11:29:19.142Z,1.00
2018-06-29T11:31:48.268Z,1.00
2018-06-29T11:34:17.449Z,1.00
2018-06-29T11:36:46.649Z,1.00
2018-06-29T11:39:15.711Z,1.00
2018-06-29T11:41:44.895Z,1.00
2018-06-29T11:44:14.093Z,1.00
2018-06-29T11:46:43.245Z,1.00
2018-06-29T11:49:12.455Z,1.00
2018-06-29T11:51:41.556Z,1.00
2018-06-29T11:54:10.753Z,1.00
2018-06-29T11:56:39.872Z,1.00
2018-06-29T11:59:09.015Z,1.00
2018-06-29T12:01:38.142Z,1.00
2018-06-29T12:04:07.273Z,1.00
2018-06-29T12:06:36.444Z,1.00
2018-06-29T12:09:08.888Z,1.00
2018-06-29T12:11:38.138Z,1.00
2018-06-29T12:14:07.342Z,1.00
2018-06-29T12:16:36.463Z,1.00
2018-06-29T12:19:05.584Z,1.00
2018-06-29T12:21:34.734Z,1.00
2018-06-29T12:24:03.874Z,1.00
2018-06-29T12:26:33.054Z,1.00
2018-06-29T12:29:02.218Z,1.00
2018-06-29T12:31:31.314Z,1.00
2018-06-29T12:34:00.504Z,1.00
2018-06-29T12:36:29.643Z,1.00
2018-06-29T12:38:58.838Z,1.00
2018-06-29T12:41:27.974Z,1.00
2018-06-29T12:43:57.101Z,1.00
2018-06-29T12:46:26.225Z,1.00
2018-06-29T12:51:24.399Z,1.00
2018-06-29T12:53:53.522Z,1.00
2018-06-29T12:56:22.658Z,1.00
2018-06-29T12:58:51.950Z,1.00
2018-06-29T13:01:21.107Z,1.00
2018-06-29T13:03:50.239Z,1.00
2018-06-29T13:06:19.393Z,1.00
2018-06-29T13:08:48.789Z,1.00
2018-06-29T13:11:17.879Z,1.00
2018-06-29T13:13:47.082Z,1.00
2018-06-29T13:16:16.217Z,1.00
2018-06-29T13:18:45.405Z,1.00
2018-06-29T13:21:14.535Z,1.00
2018-06-29T13:23:43.674Z,1.00
2018-06-29T13:26:12.800Z,1.00
2018-06-29T13:28:41.968Z,1.00
2018-06-29T13:31:11.120Z,1.00
2018-06-29T13:33:40.289Z,1.00
2018-06-29T13:36:09.390Z,1.00
2018-06-29T13:38:38.543Z,1.00
2018-06-29T13:41:07.673Z,1.00
2018-06-29T13:43:36.835Z,1.00
2018-06-29T13:46:06.030Z,1.00
2018-06-29T13:48:35.224Z,1.00
2018-06-29T13:51:04.405Z,1.00
2018-06-29T13:53:33.534Z,1.00
2018-06-29T13:56:02.673Z,1.00
2018-06-29T13:58:31.844Z,1.00
2018-06-29T14:01:01.072Z,1.00
2018-06-29T14:03:30.200Z,1.00
2018-06-29T14:05:59.366Z,1.00
2018-06-29T14:08:28.507Z,1.00
2018-06-29T14:10:57.780Z,1.00
2018-06-29T14:13:26.825Z,1.00
2018-06-29T14:15:55.986Z,1.00
2018-06-29T14:18:25.117Z,1.00
2018-06-29T14:20:54.236Z,1.00
2018-06-29T14:23:23.381Z,1.00
2018-06-29T14:25:52.588Z,1.00
2018-06-29T14:28:21.770Z,1.00
2018-06-29T14:30:50.871Z,1.00
2018-06-29T14:33:19.992Z,1.00
2018-06-29T14:35:49.162Z,1.00
2018-06-29T14:38:18.340Z,1.00
2018-06-29T14:40:47.613Z,1.00
2018-06-29T14:43:16.729Z,1.00
2018-06-29T14:45:45.882Z,1.00
2018-06-29T14:48:15.001Z,1.00
2018-06-29T14:50:44.093Z,1.00
2018-06-29T14:53:13.180Z,1.00
2018-06-29T14:55:42.363Z,1.00
2018-06-29T14:58:11.457Z,1.00
2018-06-29T15:00:40.593Z,1.00
2018-06-29T15:03:09.750Z,1.00
2018-06-29T15:05:38.907Z,1.00
2018-06-29T15:08:08.054Z,1.00
2018-06-29T15:10:37.322Z,1.00
2018-06-29T15:13:07.125Z,1.00
2018-06-29T15:15:36.267Z,1.00
2018-06-29T15:18:06.277Z,1.00
2018-06-29T15:20:35.363Z,1.00
2018-06-29T15:23:04.505Z,1.00
2018-06-29T15:25:33.605Z,1.00
2018-06-29T15:28:02.691Z,1.00
2018-06-29T15:30:31.881Z,1.00
2018-06-29T15:33:01.093Z,1.00
2018-06-29T15:35:30.214Z,1.00
2018-06-29T15:37:59.410Z,1.00
2018-06-29T15:40:28.503Z,1.00
2018-06-29T15:42:57.689Z,1.00
2018-06-29T15:45:26.829Z,1.00
2018-06-29T15:47:55.928Z,1.00
2018-06-29T15:50:25.117Z,1.00
2018-06-29T15:52:54.298Z,1.00
2018-06-29T15:55:23.648Z,1.00
2018-06-29T15:57:52.797Z,1.00
2018-06-29T16:00:21.890Z,1.00
2018-06-29T16:02:51.060Z,1.00
2018-06-29T16:05:20.233Z,2.00
2018-06-29T16:07:49.421Z,2.40
2018-06-29T16:10:18.568Z,3.50
2018-06-29T16:12:47.702Z,3.60
2018-06-29T16:15:16.816Z,3.20
2018-06-29T16:17:45.976Z,2.30
2018-06-29T16:20:15.167Z,1.00
2018-06-29T16:22:44.272Z,1.00
2018-06-29T16:25:13.414Z,1.40
2018-06-29T16:27:42.547Z,1.90
2018-06-29T16:30:11.730Z,2.40
2018-06-29T16:32:40.939Z,3.20
2018-06-29T16:35:10.239Z,4.30
2018-06-29T16:37:39.636Z,5.30
2018-06-29T16:40:08.793Z,6.10
2018-06-29T16:42:37.916Z,6.20
2018-06-29T16:45:07.151Z,6.50
2018-06-29T16:47:36.458Z,6.20
2018-06-29T16:50:05.760Z,6.10
2018-06-29T16:52:34.903Z,6.30
2018-06-29T16:55:04.067Z,6.40
2018-06-29T16:57:33.206Z,6.40
2018-06-29T17:00:02.348Z,6.60
2018-06-29T17:02:31.483Z,6.90
2018-06-29T17:05:00.686Z,6.80
2018-06-29T17:07:29.853Z,5.90
2018-06-29T17:09:59.012Z,4.40
2018-06-29T17:12:28.130Z,3.30
2018-06-29T17:14:57.311Z,2.90
2018-06-29T17:17:26.454Z,1.80
2018-06-29T17:19:55.611Z,1.00
2018-06-29T17:22:24.814Z,1.00
2018-06-29T17:24:53.937Z,1.00
2018-06-29T17:27:23.122Z,1.00
2018-06-29T17:29:52.295Z,1.00
2018-06-29T17:32:21.408Z,1.00
2018-06-29T17:34:50.641Z,1.00
2018-06-29T17:37:19.777Z,1.00
2018-06-29T17:39:48.980Z,1.00
2018-06-29T17:42:18.081Z,1.00
2018-06-29T17:44:47.250Z,1.00
2018-06-29T17:47:16.405Z,1.00
2018-06-29T17:49:45.770Z,1.00
2018-06-29T17:52:14.969Z,1.00
2018-06-29T17:54:44.178Z,1.00
2018-06-29T17:57:13.633Z,1.00
2018-06-29T17:59:42.762Z,1.00
2018-06-29T18:02:11.919Z,1.00
2018-06-29T18:04:41.066Z,1.00
2018-06-29T18:07:10.180Z,1.00
2018-06-29T18:09:39.367Z,1.00
2018-06-29T18:12:08.497Z,1.00
2018-06-29T18:17:06.597Z,2.10
2018-06-29T18:19:35.784Z,4.20
2018-06-29T18:22:04.899Z,5.70
2018-06-29T18:27:03.087Z,8.70
2018-06-29T18:29:32.224Z,10.00
2018-06-29T18:32:01.308Z,11.40
2018-06-29T18:34:30.475Z,12.30
2018-06-29T18:36:59.589Z,13.10
2018-06-29T18:39:28.765Z,14.00
2018-06-29T18:41:57.933Z,14.70
2018-06-29T18:44:27.076Z,15.40
2018-06-29T18:46:56.218Z,16.20
2018-06-29T18:49:25.413Z,16.00
2018-06-29T18:51:54.617Z,15.90
2018-06-29T18:54:23.749Z,16.40
2018-06-29T18:56:52.962Z,17.00
2018-06-29T18:59:22.157Z,17.40
2018-06-29T19:01:51.285Z,17.60
2018-06-29T19:04:20.458Z,17.80
2018-06-29T19:06:49.618Z,18.00
2018-06-29T19:09:18.797Z,18.30
2018-06-29T19:11:47.992Z,19.30
2018-06-29T19:14:17.125Z,18.80
2018-06-29T19:16:46.313Z,18.90
2018-06-29T19:19:15.504Z,19.30
2018-06-29T19:21:44.623Z,19.50
2018-06-29T19:24:13.799Z,19.60
2018-06-29T19:26:42.946Z,19.90
2018-06-29T19:29:12.062Z,20.00
2018-06-29T19:31:41.268Z,20.20
2018-06-29T19:34:10.552Z,20.30
2018-06-29T19:36:39.714Z,20.60
2018-06-29T19:39:10.427Z,20.90
2018-06-29T19:41:40.849Z,21.00
2018-06-29T19:44:10.873Z,21.40
2018-06-29T19:46:40.332Z,21.50
2018-06-29T19:49:10.143Z,21.60
2018-06-29T19:51:39.298Z,21.70
2018-06-29T19:54:08.486Z,22.10
2018-06-29T19:56:37.576Z,22.00
2018-06-29T19:59:06.702Z,22.20
2018-06-29T20:01:35.828Z,22.30
2018-06-29T20:04:05.022Z,22.60
2018-06-29T20:06:34.138Z,23.10
2018-06-29T20:09:03.290Z,23.40
2018-06-29T20:11:32.508Z,23.20
2018-06-29T20:14:01.622Z,23.90
2018-06-29T20:16:30.811Z,23.80
2018-06-29T20:18:59.984Z,23.80
2018-06-29T20:21:29.129Z,23.80
2018-06-29T20:23:58.292Z,23.70
2018-06-29T20:26:27.442Z,23.60
2018-06-29T20:28:56.586Z,23.70
2018-06-29T20:31:25.798Z,23.90
2018-06-29T20:33:55.060Z,24.00
2018-06-29T20:36:24.232Z,24.20
2018-06-29T20:38:53.549Z,24.30
2018-06-29T20:41:22.618Z,24.60
2018-06-29T20:43:51.759Z,24.90
2018-06-29T20:46:20.935Z,25.10
2018-06-29T20:48:50.143Z,25.20
2018-06-29T20:51:19.333Z,25.50
2018-06-29T20:53:48.524Z,25.80
2018-06-29T20:56:17.649Z,25.60
2018-06-29T20:58:46.838Z,25.90
2018-06-29T21:01:16.141Z,25.80
2018-06-29T21:03:45.351Z,26.20
2018-06-29T21:06:14.515Z,26.20
2018-06-29T21:08:43.644Z,26.40
2018-06-29T21:11:12.959Z,26.70
2018-06-29T21:13:42.151Z,27.10
2018-06-29T21:16:11.266Z,27.40
2018-06-29T21:18:40.364Z,27.80
2018-06-29T21:21:09.473Z,27.80
2018-06-29T21:23:38.677Z,27.90
2018-06-29T21:26:07.891Z,27.90
2018-06-29T21:28:37.222Z,28.20
2018-06-29T21:31:06.561Z,28.30
2018-06-29T21:33:35.740Z,28.30
2018-06-29T21:36:04.869Z,28.30
2018-06-29T21:38:34.010Z,28.10
2018-06-29T21:41:03.154Z,28.00
2018-06-29T21:43:32.296Z,28.40
2018-06-29T21:46:01.501Z,28.60
2018-06-29T21:48:30.676Z,29.60
2018-06-29T21:50:59.841Z,29.00
2018-06-29T21:53:28.981Z,29.30
2018-06-29T21:55:58.089Z,29.40
2018-06-29T21:58:27.310Z,29.60
2018-06-29T22:00:56.505Z,29.50
2018-06-29T22:03:25.687Z,29.80
2018-06-29T22:05:54.858Z,29.90
2018-06-29T22:08:23.988Z,30.00
2018-06-29T22:10:53.140Z,29.10
2018-06-29T22:13:22.265Z,30.20
2018-06-29T22:15:51.407Z,30.40
2018-06-29T22:18:20.594Z,30.60
2018-06-29T22:20:49.736Z,30.70
2018-06-29T22:23:18.891Z,30.80
2018-06-29T22:25:48.040Z,31.00
2018-06-29T22:28:17.203Z,31.20
2018-06-29T22:30:46.361Z,31.20
2018-06-29T22:33:15.545Z,31.30
2018-06-29T22:35:44.786Z,31.30
2018-06-29T22:38:13.924Z,31.50
2018-06-29T22:40:43.033Z,31.80
2018-06-29T22:43:12.157Z,31.90
2018-06-29T22:45:41.319Z,32.20
2018-06-29T22:48:10.526Z,32.40
2018-06-29T22:50:39.641Z,32.30
2018-06-29T22:53:08.749Z,32.30
2018-06-29T22:55:38.010Z,32.20
2018-06-29T22:58:07.121Z,32.20
2018-06-29T23:00:36.228Z,32.20
2018-06-29T23:03:08.927Z,32.20
2018-06-29T23:05:38.113Z,32.20
2018-06-29T23:08:08.433Z,32.10
2018-06-29T23:10:37.621Z,32.10
2018-06-29T23:13:07.266Z,32.00
2018-06-29T23:15:36.437Z,32.00
2018-06-29T23:18:05.827Z,32.00
2018-06-29T23:20:34.932Z,32.00
2018-06-29T23:23:04.098Z,32.00
2018-06-29T23:25:33.251Z,31.90
2018-06-29T23:28:02.378Z,31.90
2018-06-29T23:30:31.485Z,31.90
2018-06-29T23:33:00.645Z,31.90
2018-06-29T23:35:29.761Z,31.80
2018-06-29T23:37:58.877Z,31.80
2018-06-29T23:40:28.043Z,31.80
2018-06-29T23:42:57.197Z,31.70
2018-06-29T23:45:26.352Z,31.30
2018-06-29T23:47:55.460Z,31.60
2018-06-29T23:50:24.582Z,31.50
2018-06-29T23:52:53.735Z,30.70
2018-06-29T23:55:22.909Z,30.80
2018-06-29T23:57:52.026Z,30.80
